Time;durP1;ratioP1;P1;durP2;ratioP2;P2;SDS_P1;SDS_P2;PMS_P1;PMS_P2;Temp;Humidity;BMP_temperature;BMP_pressure;BME280_temperature;BME280_humidity;BME280_pressure;Samples;Min_cycle;Max_cycle;Signal;HPM_P1;HPM_P2
2022/07/14 00:00:05;;;;;;;;;;;24.80;64.90;25.00;99916.00;;;;337076;28;93604;-82
2022/07/14 00:00:17;;;;;;;;;;;24.80;65.30;24.90;99914.00;;;;337552;28;83353;-81
2022/07/14 00:00:28;;;;;;;;;;;24.80;65.10;24.90;99917.00;;;;338345;28;94116;-82
2022/07/14 00:00:40;;;;;;;;;;;24.80;65.00;24.80;99921.00;;;;339068;28;83382;-82
2022/07/14 00:00:53;;;;;;;;;;;24.80;65.90;24.80;99925.00;;;;336934;28;94524;-82
2022/07/14 00:01:05;;;;;;;;;;;24.80;66.10;24.80;99925.00;;;;340441;28;83375;-82
2022/07/14 00:01:17;;;;;;;;;;;24.80;66.50;24.80;99919.00;;;;339564;28;94608;-82
2022/07/14 00:01:30;;;;;;;;;;;24.80;66.40;24.80;99916.00;;;;339142;28;83225;-82
2022/07/14 00:01:41;;;;;;;;;;;24.80;66.30;24.80;99924.00;;;;338116;28;94170;-82
2022/07/14 00:01:53;;;;;;;;;;;24.80;66.10;24.80;99925.00;;;;340334;28;83327;-82
2022/07/14 00:02:05;;;;;;;;;;;24.80;66.20;24.80;99927.00;;;;338402;28;93436;-82
2022/07/14 00:02:17;;;;;;;;;;;24.80;66.80;24.80;99917.00;;;;336531;28;83610;-82
2022/07/14 00:02:29;;;;;;;;;;;24.80;66.00;24.80;99919.00;;;;336571;28;94503;-82
2022/07/14 00:02:41;;;;;;;;;;;24.80;65.40;24.80;99919.00;;;;337796;28;83389;-82
2022/07/14 00:02:53;;;;;;;;;;;24.80;65.80;24.80;99915.00;;;;345003;28;93076;-82
2022/07/14 00:03:05;;;;;;;;;;;24.80;65.50;24.80;99921.00;;;;344719;28;82450;-82
2022/07/14 00:03:16;;;;;;;;;;;24.80;65.20;24.80;99916.00;;;;342943;28;94510;-82
2022/07/14 00:03:28;;;;;;;;;;;24.70;65.20;24.90;99919.00;;;;340371;28;83488;-82
2022/07/14 00:03:40;;;;;;;;;;;24.70;65.30;24.90;99928.00;;;;339642;28;94573;-82
2022/07/14 00:03:52;;;;;;;;;;;24.80;65.50;24.90;99916.00;;;;337794;28;82311;-82
2022/07/14 00:04:07;;;;;;;;;;;24.80;65.60;24.90;99919.00;;;;338398;28;93470;-82
2022/07/14 00:04:19;;;;;;;;;;;24.80;65.60;24.80;99923.00;;;;340342;28;82531;-82
2022/07/14 00:04:31;;;;;;;;;;;24.80;66.20;24.80;99913.00;;;;338286;28;95953;-82
2022/07/14 00:04:43;;;;;;;;;;;24.80;65.90;24.80;99924.00;;;;338982;28;83234;-82
2022/07/14 00:04:54;;;;;;;;;;;24.80;66.00;24.80;99916.00;;;;336859;28;93398;-82
2022/07/14 00:05:06;;;;;;;;;;;24.80;66.10;24.80;99929.00;;;;340289;28;83400;-81
2022/07/14 00:05:18;;;;;;;;;;;24.80;65.80;24.80;99915.00;;;;335635;28;93955;-82
2022/07/14 00:05:31;;;;;;;;;;;24.80;65.90;24.80;99925.00;;;;337560;28;83426;-82
2022/07/14 00:05:43;;;;;;;;;;;24.80;66.20;24.80;99922.00;;;;335708;28;94480;-82
2022/07/14 00:05:54;;;;;;;;;;;24.80;66.30;24.80;99918.00;;;;337796;28;82412;-82
2022/07/14 00:06:06;;;;;;;;;;;24.70;66.00;24.80;99925.00;;;;336970;28;95423;-82
2022/07/14 00:06:18;;;;;;;;;;;24.70;65.60;24.90;99925.00;;;;337668;28;82481;-81
2022/07/14 00:06:30;;;;;;;;;;;24.70;65.70;25.00;99921.00;;;;338276;28;95811;-82
2022/07/14 00:06:41;;;;;;;;;;;24.80;65.90;24.90;99913.00;;;;336472;28;83334;-82
2022/07/14 00:06:53;;;;;;;;;;;24.80;66.10;25.00;99921.00;;;;336868;28;95707;-82
2022/07/14 00:07:07;;;;;;;;;;;24.80;65.90;25.00;99920.00;;;;343409;28;83292;-82
2022/07/14 00:07:19;;;;;;;;;;;24.80;65.90;24.90;99915.00;;;;342469;28;94638;-82
2022/07/14 00:07:31;;;;;;;;;;;24.80;66.20;24.80;99925.00;;;;344668;28;83373;-82
2022/07/14 00:07:42;;;;;;;;;;;24.80;66.50;24.90;99926.00;;;;338346;28;93347;-82
2022/07/14 00:07:54;;;;;;;;;;;24.80;66.30;24.90;99923.00;;;;337780;28;83363;-82
2022/07/14 00:08:06;;;;;;;;;;;24.80;66.20;25.00;99931.00;;;;337104;28;92970;-82
2022/07/14 00:08:18;;;;;;;;;;;24.80;66.00;24.90;99924.00;;;;337001;28;83607;-82
2022/07/14 00:08:30;;;;;;;;;;;24.80;66.10;24.90;99927.00;;;;335682;28;94363;-82
2022/07/14 00:08:45;;;;;;;;;;;24.80;66.30;24.80;99920.00;;;;336456;28;83377;-82
2022/07/14 00:08:57;;;;;;;;;;;24.80;66.20;24.80;99923.00;;;;335631;28;94541;-82
2022/07/14 00:09:08;;;;;;;;;;;24.70;66.00;24.80;99922.00;;;;336457;28;83392;-82
2022/07/14 00:09:20;;;;;;;;;;;24.80;66.60;24.90;99929.00;;;;335718;28;94599;-82
2022/07/14 00:09:32;;;;;;;;;;;24.70;65.80;24.90;99925.00;;;;336401;28;83426;-82
2022/07/14 00:09:44;;;;;;;;;;;24.80;65.80;24.80;99923.00;;;;337066;28;93497;-82
2022/07/14 00:09:56;;;;;;;;;;;24.70;66.10;24.80;99923.00;;;;337842;28;83408;-82
2022/07/14 00:10:08;;;;;;;;;;;24.70;66.10;24.80;99926.00;;;;334420;29;93642;-82
2022/07/14 00:10:20;;;;;;;;;;;24.70;65.60;24.80;99923.00;;;;343327;28;82506;-82
2022/07/14 00:10:32;;;;;;;;;;;24.80;65.60;24.90;99924.00;;;;341155;28;94290;-82
2022/07/14 00:10:43;;;;;;;;;;;24.80;66.00;24.90;99919.00;;;;340645;28;83469;-82
2022/07/14 00:10:55;;;;;;;;;;;24.80;66.00;25.00;99920.00;;;;341130;28;94305;-82
2022/07/14 00:11:07;;;;;;;;;;;24.80;66.00;25.00;99916.00;;;;336468;28;83395;-82
2022/07/14 00:11:20;;;;;;;;;;;24.80;66.20;25.00;99919.00;;;;337263;28;94475;-82
2022/07/14 00:11:32;;;;;;;;;;;24.80;66.20;25.00;99923.00;;;;337395;28;83420;-82
2022/07/14 00:11:43;;;;;;;;;;;24.80;66.20;24.90;99920.00;;;;336861;28;94227;-82
2022/07/14 00:11:55;;;;;;;;;;;24.80;66.50;24.80;99916.00;;;;337800;28;83355;-83
2022/07/14 00:12:07;;;;;;;;;;;24.80;67.20;24.90;99917.00;;;;335677;28;95145;-82
2022/07/14 00:12:18;;;;;;;;;;;24.80;66.10;24.90;99919.00;;;;344526;28;83318;-82
2022/07/14 00:12:30;;;;;;;;;;;24.80;66.00;24.90;99919.00;;;;342573;28;94537;-82
2022/07/14 00:12:42;;;;;;;;;;;24.80;65.90;25.00;99917.00;;;;343335;28;83376;-82
2022/07/14 00:12:54;;;;;;;;;;;24.80;66.10;24.90;99919.00;;;;336994;28;93028;-82
2022/07/14 00:13:05;;;;;;;;;;;24.70;66.30;24.90;99917.00;;;;334997;29;83499;-82
2022/07/14 00:13:18;;;;;;;;;;;24.80;66.20;24.90;99917.00;;;;335695;28;94218;-82
2022/07/14 00:13:29;;;;;;;;;;;24.80;65.90;24.90;99926.00;;;;336351;28;83343;-82
2022/07/14 00:13:41;;;;;;;;;;;24.70;66.00;24.80;99915.00;;;;335715;28;93871;-82
2022/07/14 00:13:53;;;;;;;;;;;24.80;66.30;24.80;99914.00;;;;336352;28;83377;-82
2022/07/14 00:14:05;;;;;;;;;;;24.80;66.30;24.90;99922.00;;;;335759;28;92242;-82
2022/07/14 00:14:16;;;;;;;;;;;24.70;65.80;24.90;99922.00;;;;336964;28;83552;-82
2022/07/14 00:14:28;;;;;;;;;;;24.70;66.00;24.90;99914.00;;;;336874;28;92454;-82
2022/07/14 00:14:40;;;;;;;;;;;24.80;65.90;24.90;99920.00;;;;337765;28;83354;-82
2022/07/14 00:14:52;;;;;;;;;;;24.70;65.60;24.90;99916.00;;;;336844;28;94082;-82
2022/07/14 00:15:04;;;;;;;;;;;24.70;65.50;24.90;99920.00;;;;336363;28;82452;-83
2022/07/14 00:15:16;;;;;;;;;;;24.70;65.70;24.90;99915.00;;;;335660;28;94613;-82
2022/07/14 00:15:28;;;;;;;;;;;24.70;65.60;24.90;99919.00;;;;337650;28;83299;-82
2022/07/14 00:15:39;;;;;;;;;;;24.80;66.20;24.90;99919.00;;;;336882;28;94758;-82
2022/07/14 00:15:51;;;;;;;;;;;24.70;66.30;24.80;99919.00;;;;334997;29;82484;-82
2022/07/14 00:16:03;;;;;;;;;;;24.70;66.50;24.80;99920.00;;;;335696;28;92937;-82
2022/07/14 00:16:15;;;;;;;;;;;24.70;66.30;24.80;99919.00;;;;336419;28;83319;-82
2022/07/14 00:16:27;;;;;;;;;;;24.70;66.30;24.70;99917.00;;;;336879;28;94418;-82
2022/07/14 00:16:39;;;;;;;;;;;24.70;66.40;24.80;99916.00;;;;337819;28;83412;-82
2022/07/14 00:16:51;;;;;;;;;;;24.70;66.20;24.80;99916.00;;;;335605;28;97290;-82
2022/07/14 00:17:03;;;;;;;;;;;24.70;66.20;24.90;99916.00;;;;337757;28;83307;-82
2022/07/14 00:17:14;;;;;;;;;;;24.70;66.20;24.90;99914.00;;;;336281;28;94554;-82
2022/07/14 00:17:26;;;;;;;;;;;24.70;66.10;24.80;99920.00;;;;337135;28;83442;-82
2022/07/14 00:17:38;;;;;;;;;;;24.70;66.10;24.80;99910.00;;;;338173;28;93881;-82
2022/07/14 00:17:50;;;;;;;;;;;24.70;65.80;24.70;99919.00;;;;338451;28;83447;-82
2022/07/14 00:18:02;;;;;;;;;;;24.70;66.20;24.70;99917.00;;;;339666;28;93391;-82
2022/07/14 00:18:14;;;;;;;;;;;24.70;66.40;24.80;99919.00;;;;336479;28;83366;-83
2022/07/14 00:18:26;;;;;;;;;;;24.70;66.50;24.80;99917.00;;;;336956;28;95975;-82
2022/07/14 00:18:43;;;;;;;;;;;24.70;67.10;24.70;99925.00;;;;337683;28;83501;-82
2022/07/14 00:18:55;;;;;;;;;;;24.70;66.60;24.90;99920.00;;;;336839;28;96054;-82
2022/07/14 00:19:07;;;;;;;;;;;24.70;66.40;24.90;99916.00;;;;337761;28;83316;-82
2022/07/14 00:19:18;;;;;;;;;;;24.70;66.50;24.90;99913.00;;;;336971;28;94120;-82
2022/07/14 00:19:30;;;;;;;;;;;24.70;66.50;24.90;99913.00;;;;339028;28;83386;-82
2022/07/14 00:19:42;;;;;;;;;;;24.70;66.40;24.90;99917.00;;;;336762;28;94250;-81
2022/07/14 00:19:54;;;;;;;;;;;24.70;66.40;24.80;99915.00;;;;337751;28;83287;-82
2022/07/14 00:20:07;;;;;;;;;;;24.70;66.50;24.70;99912.00;;;;337032;28;93478;-82
2022/07/14 00:20:19;;;;;;;;;;;24.70;66.90;24.70;99913.00;;;;337189;28;82592;-82
2022/07/14 00:20:30;;;;;;;;;;;24.70;66.60;24.70;99907.00;;;;337267;28;93827;-82
2022/07/14 00:20:42;;;;;;;;;;;24.60;66.60;24.80;99914.00;;;;336492;28;83365;-83
2022/07/14 00:20:54;;;;;;;;;;;24.60;66.10;24.80;99917.00;;;;345105;28;95920;-82
2022/07/14 00:21:05;;;;;;;;;;;24.70;66.10;24.80;99917.00;;;;344528;28;83491;-82
2022/07/14 00:21:18;;;;;;;;;;;24.70;66.30;24.80;99918.00;;;;342095;28;93294;-82
2022/07/14 00:21:30;;;;;;;;;;;24.60;66.20;24.80;99912.00;;;;339125;28;83328;-82
2022/07/14 00:21:42;;;;;;;;;;;24.70;66.10;24.70;99920.00;;;;336899;28;94567;-82
2022/07/14 00:21:54;;;;;;;;;;;24.60;66.50;24.70;99914.00;;;;336239;28;83352;-82
2022/07/14 00:22:05;;;;;;;;;;;24.60;66.80;24.60;99911.00;;;;334421;29;94135;-82
2022/07/14 00:22:17;;;;;;;;;;;24.60;66.70;24.60;99911.00;;;;336374;28;83269;-82
2022/07/14 00:22:36;;;;;;;;;;;24.60;66.70;24.50;99912.00;;;;335706;28;93968;-82
2022/07/14 00:22:47;;;;;;;;;;;24.60;66.90;24.60;99904.00;;;;337808;28;83255;-82
2022/07/14 00:23:00;;;;;;;;;;;24.60;66.90;24.50;99916.00;;;;336961;28;94984;-82
2022/07/14 00:23:12;;;;;;;;;;;24.60;66.80;24.50;99916.00;;;;337741;28;83522;-82
2022/07/14 00:23:24;;;;;;;;;;;24.60;67.00;24.40;99916.00;;;;335795;28;94525;-82
2022/07/14 00:23:36;;;;;;;;;;;24.60;67.20;24.50;99911.00;;;;337156;28;83694;-82
2022/07/14 00:23:48;;;;;;;;;;;24.60;67.10;24.50;99909.00;;;;336879;28;94487;-82
2022/07/14 00:24:00;;;;;;;;;;;24.60;66.90;24.50;99910.00;;;;338868;28;83341;-82
2022/07/14 00:24:12;;;;;;;;;;;24.60;67.10;24.40;99913.00;;;;338191;28;96760;-81
2022/07/14 00:24:24;;;;;;;;;;;24.50;67.00;24.40;99908.00;;;;338943;28;83434;-82
2022/07/14 00:24:36;;;;;;;;;;;24.50;67.20;24.40;99906.00;;;;338316;28;94102;-82
2022/07/14 00:24:48;;;;;;;;;;;24.50;67.20;24.50;99914.00;;;;339016;28;83344;-82
2022/07/14 00:25:00;;;;;;;;;;;24.50;67.30;24.50;99909.00;;;;337002;28;94599;-82
2022/07/14 00:25:12;;;;;;;;;;;24.50;67.20;24.40;99913.00;;;;339067;28;83443;-82
2022/07/14 00:25:24;;;;;;;;;;;24.50;67.20;24.30;99914.00;;;;337029;28;94228;-82
2022/07/14 00:25:36;;;;;;;;;;;24.50;67.20;24.30;99921.00;;;;338991;28;83463;-82
2022/07/14 00:25:48;;;;;;;;;;;24.50;67.30;24.40;99906.00;;;;338350;28;94348;-82
2022/07/14 00:25:59;;;;;;;;;;;24.50;67.20;24.40;99910.00;;;;339095;28;82407;-83
2022/07/14 00:26:12;;;;;;;;;;;24.50;67.20;24.30;99908.00;;;;335550;28;93632;-82
2022/07/14 00:26:24;;;;;;;;;;;24.50;67.20;24.30;99911.00;;;;336636;28;82455;-82
2022/07/14 00:26:36;;;;;;;;;;;24.40;66.90;24.30;99918.00;;;;337033;28;93184;-82
2022/07/14 00:26:47;;;;;;;;;;;24.40;67.20;24.30;99916.00;;;;338402;28;83314;-82
2022/07/14 00:26:59;;;;;;;;;;;24.40;67.20;24.30;99912.00;;;;335315;28;93592;-80
2022/07/14 00:27:11;;;;;;;;;;;24.50;67.30;24.30;99905.00;;;;337740;28;83304;-82
2022/07/14 00:27:22;;;;;;;;;;;24.40;67.20;24.30;99912.00;;;;336945;28;93731;-82
2022/07/14 00:27:36;;;;;;;;;;;24.40;67.50;24.30;99914.00;;;;337501;28;83539;-82
2022/07/14 00:27:48;;;;;;;;;;;24.40;67.20;24.20;99914.00;;;;335694;28;94181;-82
2022/07/14 00:28:00;;;;;;;;;;;24.40;67.40;24.30;99919.00;;;;337800;28;83297;-82
2022/07/14 00:28:11;;;;;;;;;;;24.40;67.20;24.30;99923.00;;;;336968;28;93315;-82
2022/07/14 00:28:23;;;;;;;;;;;24.40;67.00;24.30;99917.00;;;;342010;28;83313;-82
2022/07/14 00:28:35;;;;;;;;;;;24.40;67.20;24.30;99909.00;;;;341124;28;94500;-82
2022/07/14 00:28:47;;;;;;;;;;;24.40;67.40;24.30;99916.00;;;;341963;28;83353;-82
2022/07/14 00:28:58;;;;;;;;;;;24.40;67.70;24.30;99919.00;;;;342493;28;94199;-82
2022/07/14 00:29:10;;;;;;;;;;;24.40;67.30;24.40;99913.00;;;;337736;28;83343;-82
2022/07/14 00:29:22;;;;;;;;;;;24.40;66.70;24.50;99913.00;;;;337660;28;95485;-82
2022/07/14 00:29:35;;;;;;;;;;;24.30;66.80;24.40;99917.00;;;;337782;28;82505;-82
2022/07/14 00:29:47;;;;;;;;;;;24.30;67.40;24.30;99917.00;;;;336120;28;92102;-82
2022/07/14 00:29:59;;;;;;;;;;;24.40;67.80;24.20;99923.00;;;;335153;29;83492;-82
2022/07/14 00:30:11;;;;;;;;;;;24.30;68.00;24.20;99923.00;;;;335584;28;93594;-82
2022/07/14 00:30:22;;;;;;;;;;;24.30;67.70;24.30;99923.00;;;;337639;28;83344;-82
2022/07/14 00:30:34;;;;;;;;;;;24.30;66.90;24.40;99924.00;;;;337052;28;92207;-82
2022/07/14 00:30:50;;;;;;;;;;;24.30;66.70;24.40;99922.00;;;;339070;28;83503;-82
2022/07/14 00:31:05;;;;;;;;;;;24.30;66.70;24.40;99915.00;;;;338300;28;93841;-82
2022/07/14 00:31:18;;;;;;;;;;;24.30;67.40;24.40;99920.00;;;;337717;28;83320;-82
2022/07/14 00:31:30;;;;;;;;;;;24.30;67.00;24.40;99927.00;;;;339552;28;93555;-83
2022/07/14 00:31:41;;;;;;;;;;;24.30;67.20;24.20;99918.00;;;;337531;28;83277;-82
2022/07/14 00:31:53;;;;;;;;;;;24.30;67.80;24.30;99919.00;;;;337026;28;94371;-82
2022/07/14 00:32:08;;;;;;;;;;;24.30;67.60;24.20;99922.00;;;;339103;28;83297;-82
2022/07/14 00:32:21;;;;;;;;;;;24.30;67.30;24.30;99919.00;;;;337116;28;95140;-82
2022/07/14 00:32:33;;;;;;;;;;;24.30;67.60;24.40;99918.00;;;;338956;28;82364;-81
2022/07/14 00:32:46;;;;;;;;;;;24.30;67.10;24.40;99917.00;;;;336497;28;95486;-81
2022/07/14 00:32:57;;;;;;;;;;;24.30;67.10;24.30;99920.00;;;;337702;28;83320;-82
2022/07/14 00:33:09;;;;;;;;;;;24.30;67.60;24.30;99923.00;;;;335698;28;94521;-82
2022/07/14 00:33:21;;;;;;;;;;;24.30;67.80;24.30;99924.00;;;;338895;28;83962;-82
2022/07/14 00:33:33;;;;;;;;;;;24.30;68.10;24.30;99915.00;;;;335583;28;94914;-82
2022/07/14 00:33:45;;;;;;;;;;;24.30;67.50;24.40;99918.00;;;;337804;28;83346;-82
2022/07/14 00:33:56;;;;;;;;;;;24.30;67.20;24.50;99908.00;;;;335595;28;95798;-82
2022/07/14 00:34:08;;;;;;;;;;;24.30;67.10;24.50;99920.00;;;;336254;28;83385;-82
2022/07/14 00:34:20;;;;;;;;;;;24.30;67.00;24.50;99915.00;;;;335556;28;93413;-82
2022/07/14 00:34:31;;;;;;;;;;;24.30;67.10;24.40;99913.00;;;;337547;28;83346;-82
2022/07/14 00:34:43;;;;;;;;;;;24.30;67.50;24.30;99919.00;;;;339386;28;94503;-82
2022/07/14 00:34:57;;;;;;;;;;;24.30;67.90;24.30;99912.00;;;;338743;28;83544;-82
2022/07/14 00:35:09;;;;;;;;;;;24.30;67.80;24.20;99915.00;;;;338261;28;96545;-82
2022/07/14 00:35:21;;;;;;;;;;;24.20;67.80;24.10;99922.00;;;;334765;28;83568;-82
2022/07/14 00:35:32;;;;;;;;;;;24.20;67.70;24.20;99918.00;;;;337410;28;94260;-82
2022/07/14 00:35:45;;;;;;;;;;;24.20;67.40;24.30;99918.00;;;;337523;28;83372;-82
2022/07/14 00:35:57;;;;;;;;;;;24.20;66.90;24.30;99911.00;;;;337014;28;93823;-82
2022/07/14 00:36:09;;;;;;;;;;;24.20;67.00;24.30;99909.00;;;;336364;28;83967;-82
2022/07/14 00:36:21;;;;;;;;;;;24.20;67.00;24.30;99918.00;;;;337184;28;93793;-82
2022/07/14 00:36:32;;;;;;;;;;;24.20;67.10;24.30;99914.00;;;;337758;28;83455;-83
2022/07/14 00:36:45;;;;;;;;;;;24.20;66.90;24.30;99914.00;;;;338294;28;94202;-82
2022/07/14 00:36:56;;;;;;;;;;;24.20;66.80;24.30;99910.00;;;;337694;28;82433;-82
2022/07/14 00:37:08;;;;;;;;;;;24.20;66.90;24.30;99919.00;;;;335765;28;93098;-82
2022/07/14 00:37:20;;;;;;;;;;;24.20;67.20;24.20;99911.00;;;;336443;28;82589;-82
2022/07/14 00:37:32;;;;;;;;;;;24.20;67.90;24.30;99909.00;;;;335621;28;94578;-82
2022/07/14 00:37:43;;;;;;;;;;;24.20;67.50;24.30;99913.00;;;;336355;28;83466;-82
2022/07/14 00:37:55;;;;;;;;;;;24.20;67.40;24.30;99913.00;;;;334404;29;93215;-82
2022/07/14 00:38:07;;;;;;;;;;;24.20;67.40;24.20;99903.00;;;;336485;28;82468;-82
2022/07/14 00:38:19;;;;;;;;;;;24.20;67.60;24.10;99909.00;;;;335578;28;96420;-82
2022/07/14 00:38:30;;;;;;;;;;;24.20;67.70;24.20;99918.00;;;;337458;28;83417;-82
2022/07/14 00:38:42;;;;;;;;;;;24.20;67.10;24.10;99903.00;;;;338125;28;94640;-82
2022/07/14 00:38:55;;;;;;;;;;;24.20;67.60;24.10;99914.00;;;;340291;28;83452;-82
2022/07/14 00:39:06;;;;;;;;;;;24.20;67.50;24.10;99912.00;;;;338377;28;93955;-82
2022/07/14 00:39:18;;;;;;;;;;;24.20;67.70;24.10;99915.00;;;;337557;28;83340;-82
2022/07/14 00:39:54;;;;;;;;;;;24.20;68.20;24.10;99902.00;;;;336904;28;95815;-82
2022/07/14 00:40:04;;;;;;;;;;;24.10;68.50;24.10;99904.00;;;;337607;28;83383;-82
2022/07/14 00:40:16;;;;;;;;;;;24.20;67.80;24.10;99913.00;;;;342471;28;94672;-82
2022/07/14 00:40:28;;;;;;;;;;;24.10;67.70;24.10;99903.00;;;;343289;28;83357;-82
2022/07/14 00:40:39;;;;;;;;;;;24.10;68.00;24.10;99896.00;;;;343897;28;93658;-82
2022/07/14 00:40:51;;;;;;;;;;;24.10;68.50;24.20;99906.00;;;;337696;28;83477;-82
2022/07/14 00:41:03;;;;;;;;;;;24.10;67.60;24.20;99912.00;;;;336970;28;94332;-82
2022/07/14 00:41:15;;;;;;;;;;;24.10;67.60;24.20;99913.00;;;;338240;28;83291;-82
2022/07/14 00:41:27;;;;;;;;;;;24.10;67.90;24.10;99905.00;;;;336759;28;94479;-82
2022/07/14 00:41:39;;;;;;;;;;;24.10;67.80;24.20;99913.00;;;;336411;28;82562;-82
2022/07/14 00:41:51;;;;;;;;;;;24.10;67.60;24.10;99904.00;;;;339112;28;94293;-82
2022/07/14 00:42:03;;;;;;;;;;;24.10;67.50;24.10;99909.00;;;;337819;28;82395;-82
2022/07/14 00:42:35;;;;;;;;;;;24.10;67.60;24.20;99908.00;;;;336993;28;93985;-82
2022/07/14 00:42:48;;;;;;;;;;;24.10;67.40;24.00;99914.00;;;;337690;28;83435;-82
2022/07/14 00:43:01;;;;;;;;;;;24.10;67.60;24.10;99919.00;;;;337054;28;93421;-82
2022/07/14 00:43:13;;;;;;;;;;;24.10;67.80;24.10;99917.00;;;;336415;28;83417;-82
2022/07/14 00:43:25;;;;;;;;;;;24.10;67.80;24.10;99912.00;;;;335610;28;95708;-82
2022/07/14 00:43:36;;;;;;;;;;;24.10;67.50;24.00;99916.00;;;;337683;28;83497;-82
2022/07/14 00:43:48;;;;;;;;;;;24.10;68.00;23.90;99914.00;;;;338311;28;94561;-82
2022/07/14 00:44:01;;;;;;;;;;;24.10;67.90;23.90;99912.00;;;;339121;28;83376;-83
2022/07/14 00:44:12;;;;;;;;;;;24.10;67.90;23.90;99904.00;;;;335154;28;95105;-82
2022/07/14 00:44:24;;;;;;;;;;;24.10;68.00;24.00;99910.00;;;;339914;28;83612;-82
2022/07/14 00:44:36;;;;;;;;;;;24.10;67.80;23.90;99914.00;;;;337949;28;94812;-82
2022/07/14 00:44:48;;;;;;;;;;;24.10;67.90;23.80;99904.00;;;;337470;28;83427;-82
2022/07/14 00:45:01;;;;;;;;;;;24.00;68.10;23.80;99914.00;;;;334368;29;93427;-82
2022/07/14 00:45:14;;;;;;;;;;;24.00;68.20;23.70;99914.00;;;;339064;28;82424;-82
2022/07/14 00:45:26;;;;;;;;;;;24.00;68.10;23.70;99917.00;;;;337023;28;93827;-82
2022/07/14 00:45:38;;;;;;;;;;;24.00;68.00;23.80;99915.00;;;;339011;28;83261;-82
2022/07/14 00:45:50;;;;;;;;;;;24.00;67.80;23.80;99917.00;;;;335627;28;96271;-82
2022/07/14 00:46:02;;;;;;;;;;;24.00;67.70;23.80;99915.00;;;;336427;28;83366;-82
2022/07/14 00:46:14;;;;;;;;;;;24.00;67.80;23.80;99907.00;;;;335362;28;94189;-82
2022/07/14 00:46:26;;;;;;;;;;;24.00;67.50;23.80;99915.00;;;;336422;28;83176;-82
2022/07/14 00:46:38;;;;;;;;;;;24.00;67.40;23.90;99914.00;;;;335657;28;94384;-82
2022/07/14 00:46:49;;;;;;;;;;;24.00;67.70;23.80;99914.00;;;;337651;28;83357;-82
2022/07/14 00:47:01;;;;;;;;;;;23.90;67.90;23.90;99909.00;;;;337088;28;93859;-82
2022/07/14 00:47:13;;;;;;;;;;;24.00;67.70;23.90;99911.00;;;;337169;28;83422;-82
2022/07/14 00:47:25;;;;;;;;;;;24.00;67.80;23.90;99911.00;;;;337289;28;94224;-82
2022/07/14 00:47:37;;;;;;;;;;;23.90;67.50;23.90;99910.00;;;;336196;28;83489;-82
2022/07/14 00:47:48;;;;;;;;;;;23.90;67.70;23.90;99907.00;;;;336839;28;94442;-82
2022/07/14 00:48:00;;;;;;;;;;;23.90;67.80;23.80;99918.00;;;;337744;28;83343;-82
2022/07/14 00:48:12;;;;;;;;;;;23.90;68.10;23.80;99920.00;;;;336867;28;94497;-82
2022/07/14 00:48:25;;;;;;;;;;;23.90;68.40;23.80;99918.00;;;;343793;28;83421;-82
2022/07/14 00:48:37;;;;;;;;;;;23.90;68.30;23.80;99914.00;;;;338295;28;94425;-82
2022/07/14 00:48:49;;;;;;;;;;;23.90;68.00;23.80;99914.00;;;;336419;28;83310;-81
2022/07/14 00:49:01;;;;;;;;;;;23.90;67.80;23.90;99916.00;;;;335504;28;93722;-82
2022/07/14 00:49:12;;;;;;;;;;;23.80;67.40;23.90;99919.00;;;;337752;28;83354;-82
2022/07/14 00:49:36;;;;;;;;;;;23.90;67.50;23.80;99917.00;;;;336910;28;95798;-82
2022/07/14 00:49:51;;;;;;;;;;;23.90;68.10;23.70;99918.00;;;;336314;28;83445;-82
2022/07/14 00:50:04;;;;;;;;;;;23.90;68.20;23.70;99919.00;;;;335709;28;94610;-82
2022/07/14 00:50:22;;;;;;;;;;;23.80;68.00;23.70;99916.00;;;;336427;28;83575;-82
2022/07/14 00:50:34;;;;;;;;;;;23.80;67.90;23.80;99912.00;;;;338129;28;94612;-82
2022/07/14 00:50:46;;;;;;;;;;;23.80;67.60;23.80;99908.00;;;;338864;28;83376;-82
2022/07/14 00:50:58;;;;;;;;;;;23.80;67.20;23.80;99911.00;;;;335614;28;93604;-82
2022/07/14 00:51:10;;;;;;;;;;;23.80;66.90;23.90;99918.00;;;;338771;28;83278;-82
2022/07/14 00:51:21;;;;;;;;;;;23.80;67.40;23.80;99914.00;;;;346912;27;93082;-82
2022/07/14 00:51:35;;;;;;;;;;;23.80;67.80;23.80;99915.00;;;;347437;28;82449;-82
2022/07/14 00:51:47;;;;;;;;;;;23.80;67.70;23.90;99912.00;;;;345234;28;94319;-82
2022/07/14 00:51:58;;;;;;;;;;;23.80;67.20;23.90;99913.00;;;;345924;28;82535;-81
2022/07/14 00:52:10;;;;;;;;;;;23.80;67.00;23.90;99912.00;;;;346391;28;93801;-82
2022/07/14 00:52:23;;;;;;;;;;;23.80;67.00;23.90;99914.00;;;;346031;28;83420;-82
2022/07/14 00:52:35;;;;;;;;;;;23.80;67.10;23.90;99921.00;;;;346606;28;94488;-82
2022/07/14 00:52:47;;;;;;;;;;;23.80;67.10;23.90;99919.00;;;;347409;28;83381;-82
2022/07/14 00:53:06;;;;;;;;;;;23.80;67.50;23.90;99914.00;;;;346571;28;94618;-82
2022/07/14 00:53:18;;;;;;;;;;;23.80;67.40;23.90;99919.00;;;;342858;28;83547;-82
2022/07/14 00:53:29;;;;;;;;;;;23.80;67.30;23.80;99915.00;;;;345388;28;93370;-82
2022/07/14 00:53:41;;;;;;;;;;;23.80;67.50;23.90;99916.00;;;;344526;28;83390;-82
2022/07/14 00:53:55;;;;;;;;;;;23.80;67.10;23.80;99916.00;;;;346397;28;94167;-82
2022/07/14 00:54:07;;;;;;;;;;;23.80;67.90;23.90;99916.00;;;;346027;28;82413;-83
2022/07/14 00:54:25;;;;;;;;;;;23.80;67.80;23.90;99912.00;;;;345979;28;94187;-82
2022/07/14 00:54:37;;;;;;;;;;;23.80;67.70;24.00;99922.00;;;;347401;28;83422;-82
2022/07/14 00:54:49;;;;;;;;;;;23.80;67.30;24.00;99919.00;;;;343899;28;93537;-82
2022/07/14 00:55:01;;;;;;;;;;;23.80;67.40;24.00;99905.00;;;;345905;28;83483;-82
2022/07/14 00:55:13;;;;;;;;;;;23.80;67.40;24.10;99918.00;;;;342448;28;94614;-82
2022/07/14 00:55:25;;;;;;;;;;;23.80;67.60;23.90;99912.00;;;;347254;28;83288;-82
2022/07/14 00:55:37;;;;;;;;;;;23.80;67.90;23.80;99923.00;;;;347828;27;93906;-82
2022/07/14 00:55:48;;;;;;;;;;;23.80;67.90;23.70;99916.00;;;;345936;28;83393;-82
2022/07/14 00:56:00;;;;;;;;;;;23.80;67.80;23.70;99912.00;;;;346577;28;94123;-82
2022/07/14 00:56:12;;;;;;;;;;;23.80;67.90;23.70;99924.00;;;;347308;28;83442;-82
2022/07/14 00:56:24;;;;;;;;;;;23.80;67.90;23.80;99916.00;;;;346705;27;94505;-82
2022/07/14 00:56:36;;;;;;;;;;;23.80;67.80;23.80;99916.00;;;;344332;28;83500;-82
2022/07/14 00:56:48;;;;;;;;;;;23.80;67.40;23.80;99919.00;;;;347744;27;94524;-82
2022/07/14 00:57:00;;;;;;;;;;;23.80;67.40;23.80;99921.00;;;;350135;27;83360;-82
2022/07/14 00:57:12;;;;;;;;;;;23.80;67.10;23.80;99922.00;;;;349440;27;94670;-82
2022/07/14 00:57:24;;;;;;;;;;;23.80;67.80;23.70;99925.00;;;;346159;28;83437;-82
2022/07/14 00:57:36;;;;;;;;;;;23.80;68.20;23.80;99921.00;;;;345192;28;93895;-82
2022/07/14 00:57:48;;;;;;;;;;;23.80;67.80;23.70;99918.00;;;;346109;28;83375;-82
2022/07/14 00:58:00;;;;;;;;;;;23.80;68.00;23.80;99923.00;;;;345003;28;93433;-81
2022/07/14 00:58:11;;;;;;;;;;;23.80;67.50;23.90;99922.00;;;;345811;28;83315;-82
2022/07/14 00:58:23;;;;;;;;;;;23.80;67.50;23.90;99929.00;;;;343832;28;94034;-82
2022/07/14 00:58:35;;;;;;;;;;;23.80;67.40;23.90;99922.00;;;;344503;28;83584;-82
2022/07/14 00:58:47;;;;;;;;;;;23.80;67.80;23.80;99926.00;;;;343945;28;93975;-82
2022/07/14 00:58:58;;;;;;;;;;;23.80;68.20;23.80;99919.00;;;;343200;28;83353;-82
2022/07/14 00:59:11;;;;;;;;;;;23.80;68.10;23.80;99919.00;;;;345141;28;96008;-82
2022/07/14 00:59:22;;;;;;;;;;;23.80;67.50;23.80;99926.00;;;;348141;27;83430;-82
2022/07/14 00:59:34;;;;;;;;;;;23.70;67.30;23.80;99924.00;;;;347697;27;96934;-82
2022/07/14 00:59:47;;;;;;;;;;;23.80;67.90;23.80;99923.00;;;;348216;27;82509;-82
2022/07/14 00:59:58;;;;;;;;;;;23.70;68.00;23.70;99927.00;;;;343885;28;93489;-82
2022/07/14 01:00:12;;;;;;;;;;;23.70;67.90;23.70;99920.00;;;;344552;28;83295;-81
2022/07/14 01:00:23;;;;;;;;;;;23.70;68.10;23.70;99926.00;;;;346205;28;93987;-82
2022/07/14 01:00:35;;;;;;;;;;;23.70;67.90;23.70;99918.00;;;;347395;28;83410;-82
2022/07/14 01:00:47;;;;;;;;;;;23.70;67.80;23.60;99923.00;;;;345233;28;94504;-82